Impacts TAF Board INFO
FOR SITUATIONAL AWARENESS. NOT TO BE USED FOR FLIGHT PLANNING PURPOSES.
IDs:

KPHX - Phoenix/Sky Harbor, AZ, US

Issued at 1120 UTC 19 Nov 2017
Updated at 1208 UTC 19 Nov 2017
Potential Impact None Slight Moderate High
Time1151Z 19/13Z 19/14Z 19/15Z 19/16Z 19/17Z 19/18Z 19/19Z 19/20Z 19/21Z 19/22Z 19/23Z 20/00Z 20/01Z>>
Type OBS PRVL PRVL PRVL PRVL PRVL PRVL PRVL PRVL PRVL PRVL PRVL PRVL PRVL
VIS 10 >6 >6 >6 >6 >6 >6 >6 >6 >6 >6 >6 >6 >6
CIG -- -- -- -- -- -- -- -- -- -- -- -- -- --
Cover FEW FEW FEW FEW SKC SKC SKC SKC SKC SKC SKC FEW FEW FEW
FltCat VFR VFR VFR VFR VFR VFR VFR VFR VFR VFR VFR VFR VFR VFR
WX -- -- -- -- -- -- -- -- -- -- -- -- -- --
WDir 230 VRB VRB VRB 60 60 60 60 60 60 60 240 240 240
WSpd 3 3 3 3 7 7 7 7 7 7 7 4 4 4
WGst -- -- -- -- -- -- -- -- -- -- -- -- -- --

Raw TAF
KPHX 191120Z 1912/2018 VRB03KT P6SM FEW250
  FM191600 06007KT P6SM SKC
  FM192300 24004KT P6SM FEW250
  FM200500 10004KT P6SM SCT250


Raw METAR
KPHX 191151Z 23003KT 10SM FEW250 12/M04 A3003 RMK AO2 SLP159 T01171044 10167 20117 56009
KPHX 191051Z 00000KT 10SM FEW250 13/M05 A3003 RMK AO2 SLP160 T01281050
KPHX 190951Z 29003KT 10SM SCT250 13/M04 A3004 RMK AO2 SLP162 T01331039

METAR Board
Radar Display
Forecast Discussion

FOR SITUATIONAL AWARENESS. NOT TO BE USED FOR FLIGHT PLANNING PURPOSES.